createdAt,value
2018-06-30T00:00:10.095Z,0
2018-06-30T00:01:18.746Z,0
2018-06-30T00:02:27.658Z,0
2018-06-30T00:03:36.309Z,0
2018-06-30T00:04:44.954Z,0
2018-06-30T00:05:53.614Z,0
2018-06-30T00:07:02.258Z,0
2018-06-30T00:08:10.912Z,0
2018-06-30T00:09:19.559Z,0
2018-06-30T00:10:28.221Z,0
2018-06-30T00:11:36.852Z,0
2018-06-30T00:12:45.505Z,0
2018-06-30T00:13:54.157Z,0
2018-06-30T00:15:02.800Z,0
2018-06-30T00:16:11.447Z,0
2018-06-30T00:17:20.094Z,0
2018-06-30T00:18:28.749Z,0
2018-06-30T00:19:37.390Z,0
2018-06-30T00:20:46.039Z,0
2018-06-30T00:21:54.944Z,0
2018-06-30T00:23:03.595Z,0
2018-06-30T00:24:12.239Z,0
2018-06-30T00:25:21.150Z,0
2018-06-30T00:26:29.790Z,0
2018-06-30T00:27:38.432Z,0
2018-06-30T00:28:47.086Z,0
2018-06-30T00:29:55.735Z,0
2018-06-30T00:31:04.379Z,0
2018-06-30T00:32:13.022Z,0
2018-06-30T00:33:21.940Z,0
2018-06-30T00:34:30.589Z,0
2018-06-30T00:35:39.235Z,0
2018-06-30T00:36:47.878Z,0
2018-06-30T00:37:56.530Z,0
2018-06-30T00:39:05.174Z,0
2018-06-30T00:40:13.821Z,0
2018-06-30T00:41:22.462Z,0
2018-06-30T00:42:31.111Z,0
2018-06-30T00:43:39.756Z,0
2018-06-30T00:44:48.404Z,0
2018-06-30T00:45:57.053Z,0
2018-06-30T00:47:05.965Z,0
2018-06-30T00:48:14.876Z,0
2018-06-30T00:49:23.522Z,0
2018-06-30T00:50:32.172Z,0
2018-06-30T00:51:40.813Z,0
2018-06-30T00:52:49.462Z,0
2018-06-30T00:53:58.107Z,0
2018-06-30T00:55:06.758Z,0
2018-06-30T00:56:15.400Z,0
2018-06-30T00:57:24.050Z,0
2018-06-30T00:58:32.957Z,0
2018-06-30T00:59:41.599Z,0
2018-06-30T01:00:50.247Z,0
2018-06-30T01:01:58.893Z,0
2018-06-30T01:03:07.801Z,0
2018-06-30T01:04:16.462Z,0
2018-06-30T01:05:25.372Z,0
2018-06-30T01:06:34.018Z,0
2018-06-30T01:07:42.664Z,0
2018-06-30T01:08:51.315Z,0
2018-06-30T01:09:59.955Z,0
2018-06-30T01:11:08.607Z,0
2018-06-30T01:12:17.248Z,0
2018-06-30T01:13:25.900Z,0
2018-06-30T01:14:34.540Z,0
2018-06-30T01:15:43.455Z,0
2018-06-30T01:16:52.103Z,0
2018-06-30T01:18:00.754Z,0
2018-06-30T01:19:09.403Z,0
2018-06-30T01:20:18.363Z,0
2018-06-30T01:21:27.007Z,0
2018-06-30T01:22:35.651Z,0
2018-06-30T01:23:44.302Z,0
2018-06-30T01:24:52.955Z,0
2018-06-30T01:26:01.595Z,0
2018-06-30T01:27:10.237Z,0
2018-06-30T01:28:19.160Z,0
2018-06-30T01:29:28.069Z,0
2018-06-30T01:30:36.718Z,0
2018-06-30T01:31:45.350Z,0
2018-06-30T01:32:54.002Z,0
2018-06-30T01:34:02.643Z,0
2018-06-30T01:35:11.291Z,0
2018-06-30T01:36:19.931Z,0
2018-06-30T01:37:28.579Z,0
2018-06-30T01:38:37.224Z,0
2018-06-30T01:39:45.872Z,0
2018-06-30T01:40:54.530Z,0
2018-06-30T01:42:03.441Z,0
2018-06-30T01:43:12.088Z,0
2018-06-30T01:44:20.732Z,0
2018-06-30T01:45:29.382Z,0
2018-06-30T01:46:38.291Z,0
2018-06-30T01:47:46.935Z,0
2018-06-30T01:48:55.581Z,0
2018-06-30T01:50:04.274Z,0
2018-06-30T01:51:12.873Z,0
2018-06-30T01:52:21.521Z,0
2018-06-30T01:53:30.169Z,0
2018-06-30T01:54:38.814Z,0
2018-06-30T01:55:47.459Z,0
2018-06-30T01:56:56.104Z,0
2018-06-30T01:58:04.749Z,0
2018-06-30T01:59:13.393Z,0
2018-06-30T02:00:22.048Z,0
2018-06-30T02:01:30.689Z,0
2018-06-30T02:02:39.339Z,0
2018-06-30T02:03:47.984Z,0
2018-06-30T02:04:56.635Z,0
2018-06-30T02:06:05.314Z,0
2018-06-30T02:07:13.970Z,0
2018-06-30T02:08:22.609Z,0
2018-06-30T02:09:31.262Z,0
2018-06-30T02:10:39.907Z,0
2018-06-30T02:11:48.557Z,0
2018-06-30T02:12:57.192Z,0
2018-06-30T02:14:06.100Z,0
2018-06-30T02:15:14.751Z,0
2018-06-30T02:16:23.401Z,0
2018-06-30T02:17:32.044Z,0
2018-06-30T02:18:40.681Z,0
2018-06-30T02:19:49.330Z,0
2018-06-30T02:20:58.233Z,0
2018-06-30T02:22:06.888Z,0
2018-06-30T02:23:15.526Z,0
2018-06-30T02:24:24.177Z,0
2018-06-30T02:25:32.819Z,0
2018-06-30T02:26:41.477Z,4
2018-06-30T02:27:50.111Z,0
2018-06-30T02:28:59.021Z,0
2018-06-30T02:30:07.929Z,0
2018-06-30T02:31:16.850Z,4
2018-06-30T02:32:26.039Z,4
2018-06-30T02:33:34.686Z,0
2018-06-30T02:34:43.332Z,4
2018-06-30T02:35:51.986Z,4
2018-06-30T02:37:00.651Z,4
2018-06-30T02:38:09.558Z,4
2018-06-30T02:39:18.479Z,4
2018-06-30T02:40:27.384Z,4
2018-06-30T02:41:36.113Z,8
2018-06-30T02:42:44.950Z,4
2018-06-30T02:43:53.606Z,4
2018-06-30T02:45:02.251Z,8
2018-06-30T02:46:10.906Z,8
2018-06-30T02:47:19.821Z,8
2018-06-30T02:48:28.470Z,8
2018-06-30T02:49:37.374Z,12
2018-06-30T02:50:46.034Z,16
2018-06-30T02:51:54.691Z,16
2018-06-30T02:53:03.344Z,16
2018-06-30T02:54:12.277Z,20
2018-06-30T02:55:21.176Z,20
2018-06-30T02:56:30.093Z,24
2018-06-30T02:57:38.738Z,24
2018-06-30T02:58:47.379Z,28
2018-06-30T02:59:56.036Z,28
2018-06-30T03:01:04.683Z,32
2018-06-30T03:02:13.481Z,36
2018-06-30T03:03:22.511Z,40
2018-06-30T03:04:31.854Z,44
2018-06-30T03:05:41.453Z,48
2018-06-30T03:06:50.388Z,52
2018-06-30T03:07:59.716Z,60
2018-06-30T03:09:09.030Z,64
2018-06-30T03:10:18.014Z,72
2018-06-30T03:11:26.856Z,76
2018-06-30T03:12:35.822Z,84
2018-06-30T03:13:44.466Z,92
2018-06-30T03:14:53.375Z,96
2018-06-30T03:16:02.023Z,100
2018-06-30T03:17:10.675Z,108
2018-06-30T03:18:19.852Z,116
2018-06-30T03:19:28.495Z,128
2018-06-30T03:20:37.147Z,140
2018-06-30T03:21:46.068Z,152
2018-06-30T03:22:54.712Z,168
2018-06-30T03:24:03.357Z,180
2018-06-30T03:25:12.002Z,200
2018-06-30T03:26:20.652Z,220
2018-06-30T03:27:29.563Z,236
2018-06-30T03:28:38.210Z,256
2018-06-30T03:29:46.854Z,272
2018-06-30T03:30:55.770Z,292
2018-06-30T03:32:04.434Z,312
2018-06-30T03:33:13.352Z,328
2018-06-30T03:34:21.997Z,340
2018-06-30T03:35:30.639Z,356
2018-06-30T03:36:39.289Z,368
2018-06-30T03:37:47.938Z,384
2018-06-30T03:38:56.584Z,392
2018-06-30T03:40:05.753Z,408
2018-06-30T03:41:14.405Z,424
2018-06-30T03:42:23.046Z,444
2018-06-30T03:43:31.693Z,472
2018-06-30T03:44:40.336Z,496
2018-06-30T03:45:48.987Z,524
2018-06-30T03:46:57.634Z,540
2018-06-30T03:48:06.282Z,560
2018-06-30T03:49:15.191Z,572
2018-06-30T03:50:23.830Z,596
2018-06-30T03:51:32.480Z,628
2018-06-30T03:52:41.386Z,672
2018-06-30T03:53:50.036Z,720
2018-06-30T03:54:58.674Z,752
2018-06-30T03:56:07.596Z,788
2018-06-30T03:57:16.237Z,848
2018-06-30T03:58:24.891Z,908
2018-06-30T03:59:33.791Z,976
2018-06-30T04:00:42.437Z,1040
2018-06-30T04:01:51.076Z,1108
2018-06-30T04:02:59.734Z,1176
2018-06-30T04:04:08.379Z,1260
2018-06-30T04:05:17.023Z,1344
2018-06-30T04:06:25.667Z,1392
2018-06-30T04:07:34.317Z,1424
2018-06-30T04:08:42.971Z,1460
2018-06-30T04:09:51.612Z,1492
2018-06-30T04:11:00.264Z,1496
2018-06-30T04:12:09.160Z,1492
2018-06-30T04:13:17.817Z,1500
2018-06-30T04:14:26.456Z,1508
2018-06-30T04:15:35.109Z,1524
2018-06-30T04:16:43.749Z,1544
2018-06-30T04:17:52.405Z,1576
2018-06-30T04:19:01.049Z,1588
2018-06-30T04:20:09.700Z,1556
2018-06-30T04:21:18.335Z,1512
2018-06-30T04:22:26.984Z,1468
2018-06-30T04:23:35.637Z,1448
2018-06-30T04:24:44.286Z,1432
2018-06-30T04:25:52.936Z,1420
2018-06-30T04:27:01.575Z,1412
2018-06-30T04:28:10.225Z,1408
2018-06-30T04:29:19.656Z,1408
2018-06-30T04:30:28.585Z,1412
2018-06-30T04:31:37.222Z,1416
2018-06-30T04:32:45.872Z,1420
2018-06-30T04:33:54.514Z,1428
2018-06-30T04:35:03.167Z,1432
2018-06-30T04:36:11.804Z,1440
2018-06-30T04:37:20.714Z,1440
2018-06-30T04:38:29.630Z,1440
2018-06-30T04:39:38.288Z,1440
2018-06-30T04:40:47.200Z,1440
2018-06-30T04:41:55.843Z,1440
2018-06-30T04:43:04.485Z,1440
2018-06-30T04:44:13.132Z,1436
2018-06-30T04:45:21.788Z,1432
2018-06-30T04:46:30.430Z,1436
2018-06-30T04:47:39.081Z,1436
2018-06-30T04:48:47.718Z,1436
2018-06-30T04:49:56.373Z,1444
2018-06-30T04:51:05.046Z,1456
2018-06-30T04:52:13.981Z,1464
2018-06-30T04:53:22.628Z,1480
2018-06-30T04:54:31.263Z,1492
2018-06-30T04:55:39.911Z,1508
2018-06-30T04:56:48.555Z,1524
2018-06-30T04:57:57.209Z,1548
2018-06-30T04:59:05.853Z,1556
2018-06-30T05:00:14.497Z,1572
2018-06-30T05:01:23.404Z,1588
2018-06-30T05:02:32.305Z,1588
2018-06-30T05:03:41.226Z,1592
2018-06-30T05:04:50.127Z,1604
2018-06-30T05:05:58.778Z,1604
2018-06-30T05:07:07.420Z,1612
2018-06-30T05:08:16.076Z,1616
2018-06-30T05:09:24.709Z,1628
2018-06-30T05:10:33.364Z,1632
2018-06-30T05:11:41.997Z,1632
2018-06-30T05:12:50.707Z,1636
2018-06-30T05:13:59.568Z,1636
2018-06-30T05:15:08.222Z,1640
2018-06-30T05:16:17.127Z,1640
2018-06-30T05:17:25.774Z,1644
2018-06-30T05:18:34.429Z,1648
2018-06-30T05:19:43.078Z,1656
2018-06-30T05:20:51.727Z,1660
2018-06-30T05:22:00.365Z,1668
2018-06-30T05:23:09.017Z,1660
2018-06-30T05:24:17.661Z,1676
2018-06-30T05:25:26.320Z,1672
2018-06-30T05:26:35.218Z,1672
2018-06-30T05:27:43.867Z,1672
2018-06-30T05:28:52.510Z,1672
2018-06-30T05:30:01.168Z,1676
2018-06-30T05:31:10.071Z,1668
2018-06-30T05:32:18.719Z,1676
2018-06-30T05:33:27.433Z,1676
2018-06-30T05:34:36.020Z,1672
2018-06-30T05:35:44.666Z,1672
2018-06-30T05:36:53.307Z,1680
2018-06-30T05:38:01.951Z,1684
2018-06-30T05:39:10.863Z,1684
2018-06-30T05:40:19.781Z,1680
2018-06-30T05:41:28.425Z,1688
2018-06-30T05:42:37.076Z,1688
2018-06-30T05:43:45.716Z,1688
2018-06-30T05:44:54.367Z,1692
2018-06-30T05:46:03.005Z,1692
2018-06-30T05:47:11.660Z,1692
2018-06-30T05:48:20.595Z,1692
2018-06-30T05:49:29.215Z,1700
2018-06-30T05:50:37.867Z,1704
2018-06-30T05:51:47.050Z,1704
2018-06-30T05:52:55.982Z,1700
2018-06-30T05:54:04.888Z,1708
2018-06-30T05:55:13.536Z,1724
2018-06-30T05:56:22.449Z,1736
2018-06-30T05:57:31.098Z,1748
2018-06-30T05:58:39.739Z,1748
2018-06-30T05:59:48.383Z,1748
2018-06-30T06:00:57.030Z,1760
2018-06-30T06:02:05.684Z,1764
2018-06-30T06:03:14.327Z,1772
2018-06-30T06:04:22.975Z,1784
2018-06-30T06:05:31.623Z,1792
2018-06-30T06:06:40.541Z,1808
2018-06-30T06:07:49.185Z,1824
2018-06-30T06:08:57.832Z,1824
2018-06-30T06:10:06.768Z,1840
2018-06-30T06:11:15.657Z,1828
2018-06-30T06:12:24.302Z,1844
2018-06-30T06:13:32.951Z,1848
2018-06-30T06:14:41.592Z,1856
2018-06-30T06:15:50.237Z,1868
2018-06-30T06:16:58.910Z,1868
2018-06-30T06:18:07.545Z,1876
2018-06-30T06:19:16.467Z,1884
2018-06-30T06:20:25.114Z,1896
2018-06-30T06:21:33.775Z,1912
2018-06-30T06:22:42.419Z,1924
2018-06-30T06:23:51.335Z,1920
2018-06-30T06:25:00.244Z,1928
2018-06-30T06:26:08.896Z,1928
2018-06-30T06:27:17.545Z,1948
2018-06-30T06:28:26.196Z,1952
2018-06-30T06:29:35.099Z,1960
2018-06-30T06:30:43.753Z,1960
2018-06-30T06:31:52.405Z,1964
2018-06-30T06:33:01.054Z,1976
2018-06-30T06:34:09.705Z,2012
2018-06-30T06:35:18.347Z,2008
2018-06-30T06:36:26.996Z,2008
2018-06-30T06:37:35.911Z,2008
2018-06-30T06:38:44.563Z,2032
2018-06-30T06:39:53.207Z,2036
2018-06-30T06:41:01.854Z,2032
2018-06-30T06:42:10.503Z,2040
2018-06-30T06:43:19.155Z,2032
2018-06-30T06:44:27.796Z,2040
2018-06-30T06:45:36.450Z,2056
2018-06-30T06:46:45.098Z,2052
2018-06-30T06:47:53.747Z,2080
2018-06-30T06:49:02.393Z,2068
2018-06-30T06:50:11.307Z,2080
2018-06-30T06:51:19.949Z,2088
2018-06-30T06:52:28.593Z,2084
2018-06-30T06:53:37.253Z,2084
2018-06-30T06:54:45.895Z,2108
2018-06-30T06:55:54.546Z,2100
2018-06-30T06:57:03.184Z,2100
2018-06-30T06:58:12.107Z,2108
2018-06-30T06:59:21.015Z,2112
2018-06-30T07:00:29.669Z,2128
2018-06-30T07:01:38.607Z,2140
2018-06-30T07:02:47.248Z,2140
2018-06-30T07:03:55.896Z,2148
2018-06-30T07:05:04.546Z,2168
2018-06-30T07:06:13.187Z,2168
2018-06-30T07:07:22.125Z,2180
2018-06-30T07:08:30.752Z,2172
2018-06-30T07:09:39.678Z,2184
2018-06-30T07:10:48.330Z,2172
2018-06-30T07:11:56.976Z,2184
2018-06-30T07:13:05.621Z,2180
2018-06-30T07:14:14.263Z,2192
2018-06-30T07:15:23.185Z,2184
2018-06-30T07:16:32.084Z,2200
2018-06-30T07:17:40.739Z,2184
2018-06-30T07:18:49.380Z,2196
2018-06-30T07:19:58.037Z,2184
2018-06-30T07:21:06.938Z,2188
2018-06-30T07:22:15.589Z,2212
2018-06-30T07:23:24.235Z,2204
2018-06-30T07:24:32.936Z,2208
2018-06-30T07:25:41.787Z,2208
2018-06-30T07:26:50.186Z,2208
2018-06-30T07:27:58.833Z,2244
2018-06-30T07:29:07.480Z,2232
2018-06-30T07:30:16.147Z,2216
2018-06-30T07:31:25.082Z,2212
2018-06-30T07:32:33.708Z,2204
2018-06-30T07:33:42.345Z,2204
2018-06-30T07:34:51.003Z,2228
2018-06-30T07:35:59.652Z,2232
2018-06-30T07:37:08.306Z,2212
2018-06-30T07:38:16.946Z,2256
2018-06-30T07:39:25.604Z,2228
2018-06-30T07:40:34.251Z,2216
2018-06-30T07:41:42.902Z,2232
2018-06-30T07:42:51.543Z,2228
2018-06-30T07:44:00.190Z,2232
2018-06-30T07:45:08.842Z,2268
2018-06-30T07:46:17.495Z,2252
2018-06-30T07:47:26.408Z,2244
2018-06-30T07:48:35.047Z,2236
2018-06-30T07:49:43.966Z,2252
2018-06-30T07:50:52.621Z,2260
2018-06-30T07:52:01.274Z,2256
2018-06-30T07:53:10.181Z,2248
2018-06-30T07:54:18.829Z,2276
2018-06-30T07:55:27.481Z,2276
2018-06-30T07:56:36.131Z,2264
2018-06-30T07:57:44.777Z,2280
2018-06-30T07:58:53.735Z,2260
2018-06-30T08:00:02.381Z,2280
2018-06-30T08:01:11.036Z,2268
2018-06-30T08:02:19.766Z,2272
2018-06-30T08:03:28.338Z,2260
2018-06-30T08:04:36.985Z,2268
2018-06-30T08:05:45.628Z,2280
2018-06-30T08:06:54.280Z,2296
2018-06-30T08:08:03.192Z,2288
2018-06-30T08:09:11.839Z,2312
2018-06-30T08:10:20.491Z,2304
2018-06-30T08:11:29.142Z,2308
2018-06-30T08:12:37.800Z,2296
2018-06-30T08:13:46.514Z,2308
2018-06-30T08:14:55.096Z,2308
2018-06-30T08:16:04.016Z,2324
2018-06-30T08:17:12.929Z,2324
2018-06-30T08:18:21.579Z,2324
2018-06-30T08:19:30.228Z,2324
2018-06-30T08:20:38.877Z,2332
2018-06-30T08:21:47.527Z,2328
2018-06-30T08:22:56.180Z,2324
2018-06-30T08:24:05.106Z,2328
2018-06-30T08:25:14.287Z,2332
2018-06-30T08:26:22.935Z,2352
2018-06-30T08:27:31.586Z,2348
2018-06-30T08:28:40.239Z,2328
2018-06-30T08:29:48.885Z,2348
2018-06-30T08:30:57.537Z,2348
2018-06-30T08:32:06.450Z,2364
2018-06-30T08:33:15.105Z,2336
2018-06-30T08:34:23.746Z,2352
2018-06-30T08:35:32.398Z,2340
2018-06-30T08:36:41.048Z,2340
2018-06-30T08:37:49.962Z,2324
2018-06-30T08:38:58.609Z,2344
2018-06-30T08:40:07.259Z,2320
2018-06-30T08:41:15.906Z,2332
2018-06-30T08:42:24.552Z,2352
2018-06-30T08:43:33.207Z,2348
2018-06-30T08:44:41.945Z,2336
2018-06-30T08:45:50.505Z,2336
2018-06-30T08:46:59.148Z,2336
2018-06-30T08:48:07.807Z,2336
2018-06-30T08:49:16.718Z,2332
2018-06-30T08:50:25.367Z,2324
2018-06-30T08:51:34.022Z,2336
2018-06-30T08:52:42.670Z,2356
2018-06-30T08:53:51.323Z,2352
2018-06-30T08:54:59.970Z,2352
2018-06-30T08:56:08.627Z,2356
2018-06-30T08:57:17.275Z,2344
2018-06-30T08:58:26.184Z,2364
2018-06-30T08:59:34.829Z,2368
2018-06-30T09:00:43.806Z,2380
2018-06-30T09:01:52.438Z,2396
2018-06-30T09:03:01.063Z,2404
2018-06-30T09:04:09.714Z,2404
2018-06-30T09:05:18.360Z,2408
2018-06-30T09:06:27.084Z,2416
2018-06-30T09:07:35.676Z,2416
2018-06-30T09:08:44.324Z,2412
2018-06-30T09:09:52.970Z,2432
2018-06-30T09:11:01.633Z,2428
2018-06-30T09:12:10.323Z,2440
2018-06-30T09:13:18.927Z,2432
2018-06-30T09:14:27.573Z,2452
2018-06-30T09:15:36.229Z,2444
2018-06-30T09:16:45.187Z,2444
2018-06-30T09:17:54.120Z,2436
2018-06-30T09:19:02.767Z,2452
2018-06-30T09:20:11.476Z,2456
2018-06-30T09:21:20.064Z,2456
2018-06-30T09:22:28.713Z,2468
2018-06-30T09:23:37.366Z,2476
2018-06-30T09:24:46.013Z,2488
2018-06-30T09:25:55.185Z,2480
2018-06-30T09:27:03.837Z,2496
2018-06-30T09:28:12.491Z,2488
2018-06-30T09:29:21.135Z,2500
2018-06-30T09:30:29.789Z,2504
2018-06-30T09:31:38.436Z,2508
2018-06-30T09:32:47.095Z,2524
2018-06-30T09:33:55.743Z,2540
2018-06-30T09:35:04.394Z,2528
2018-06-30T09:36:13.047Z,2548
2018-06-30T09:37:21.695Z,2540
2018-06-30T09:38:30.353Z,2576
2018-06-30T09:39:39.004Z,2556
2018-06-30T09:40:47.918Z,2552
2018-06-30T09:41:56.565Z,2580
2018-06-30T09:43:05.221Z,2576
2018-06-30T09:44:13.874Z,2592
2018-06-30T09:45:22.535Z,2596
2018-06-30T09:46:31.178Z,2600
2018-06-30T09:47:39.839Z,2608
2018-06-30T09:48:48.541Z,2616
2018-06-30T09:49:57.138Z,2632
2018-06-30T09:51:05.902Z,2656
2018-06-30T09:52:14.839Z,2700
2018-06-30T09:53:23.490Z,2664
2018-06-30T09:54:32.415Z,2692
2018-06-30T09:55:41.072Z,2692
2018-06-30T09:56:50.303Z,2680
2018-06-30T09:57:59.227Z,2692
2018-06-30T09:59:07.876Z,2692
2018-06-30T10:00:16.800Z,2708
2018-06-30T10:01:25.442Z,2712
2018-06-30T10:02:34.361Z,2712
2018-06-30T10:03:43.011Z,2736
2018-06-30T10:04:51.670Z,2740
2018-06-30T10:06:00.314Z,2756
2018-06-30T10:07:09.238Z,2796
2018-06-30T10:08:18.413Z,2772
2018-06-30T10:09:27.332Z,2772
2018-06-30T10:10:36.245Z,2800
2018-06-30T10:11:44.889Z,2800
2018-06-30T10:12:53.539Z,2804
2018-06-30T10:14:02.190Z,2820
2018-06-30T10:15:10.849Z,2816
2018-06-30T10:16:19.498Z,2848
2018-06-30T10:17:28.462Z,2836
2018-06-30T10:18:37.061Z,2876
2018-06-30T10:19:45.720Z,2848
2018-06-30T10:20:54.419Z,2876
2018-06-30T10:22:03.026Z,2900
2018-06-30T10:23:11.667Z,2888
2018-06-30T10:24:20.591Z,2896
2018-06-30T10:25:29.502Z,2904
2018-06-30T10:26:38.157Z,2972
2018-06-30T10:27:46.804Z,2924
2018-06-30T10:28:55.715Z,2956
2018-06-30T10:30:04.704Z,2952
2018-06-30T10:31:13.396Z,2948
2018-06-30T10:32:22.010Z,2976
2018-06-30T10:33:30.651Z,2960
2018-06-30T10:34:39.308Z,2964
2018-06-30T10:35:47.954Z,2960
2018-06-30T10:36:56.614Z,2964
2018-06-30T10:38:05.255Z,2956
2018-06-30T10:39:13.913Z,2988
2018-06-30T10:40:22.559Z,2992
2018-06-30T10:41:31.219Z,2984
2018-06-30T10:42:39.863Z,3012
2018-06-30T10:43:48.516Z,2988
2018-06-30T10:44:57.164Z,3004
2018-06-30T10:46:05.829Z,2996
2018-06-30T10:47:14.480Z,3000
2018-06-30T10:48:23.126Z,3008
2018-06-30T10:49:31.778Z,3000
2018-06-30T10:50:40.437Z,2996
2018-06-30T10:51:49.361Z,3004
2018-06-30T10:52:58.270Z,3024
2018-06-30T10:54:07.191Z,3012
2018-06-30T10:55:15.838Z,3024
2018-06-30T10:56:24.497Z,3044
2018-06-30T10:57:33.146Z,3036
2018-06-30T10:58:41.807Z,3048
2018-06-30T10:59:50.714Z,3036
2018-06-30T11:00:59.376Z,3028
2018-06-30T11:02:08.025Z,3044
2018-06-30T11:03:16.685Z,3044
2018-06-30T11:04:25.329Z,3116
2018-06-30T11:05:33.980Z,3048
2018-06-30T11:06:42.638Z,3056
2018-06-30T11:07:51.290Z,3056
2018-06-30T11:09:00.215Z,3044
2018-06-30T11:10:08.856Z,3056
2018-06-30T11:11:17.784Z,3052
2018-06-30T11:12:26.430Z,3064
2018-06-30T11:13:35.092Z,3064
2018-06-30T11:14:43.736Z,3080
2018-06-30T11:15:52.392Z,3068
2018-06-30T11:17:01.314Z,3076
2018-06-30T11:18:09.976Z,3072
2018-06-30T11:19:18.619Z,3092
2018-06-30T11:20:27.273Z,3096
2018-06-30T11:21:35.922Z,3088
2018-06-30T11:22:44.585Z,3088
2018-06-30T11:23:53.236Z,3084
2018-06-30T11:25:02.164Z,3088
2018-06-30T11:26:10.816Z,3128
2018-06-30T11:27:19.465Z,3096
2018-06-30T11:28:28.125Z,3108
2018-06-30T11:29:36.775Z,3124
2018-06-30T11:30:45.434Z,3112
2018-06-30T11:31:54.085Z,3108
2018-06-30T11:33:02.744Z,3116
2018-06-30T11:34:11.391Z,3104
2018-06-30T11:35:20.313Z,3088
2018-06-30T11:36:28.957Z,3100
2018-06-30T11:37:37.623Z,3104
2018-06-30T11:38:46.269Z,3116
2018-06-30T11:39:54.925Z,3116
2018-06-30T11:41:03.569Z,3160
2018-06-30T11:42:12.222Z,3112
2018-06-30T11:43:20.884Z,3112
2018-06-30T11:44:29.529Z,3152
2018-06-30T11:45:38.186Z,3120
2018-06-30T11:46:46.828Z,3124
2018-06-30T11:47:55.478Z,3136
2018-06-30T11:49:04.143Z,3120
2018-06-30T11:50:12.800Z,3124
2018-06-30T11:51:21.448Z,3124
2018-06-30T11:52:30.100Z,3124
2018-06-30T11:53:38.758Z,3116
2018-06-30T11:54:47.410Z,3120
2018-06-30T11:55:56.057Z,3136
2018-06-30T11:57:04.713Z,3124
2018-06-30T11:58:13.363Z,3124
2018-06-30T11:59:22.027Z,3124
2018-06-30T12:00:30.680Z,3132
2018-06-30T12:01:39.334Z,3124
2018-06-30T12:02:47.986Z,3124
2018-06-30T12:03:56.640Z,3124
2018-06-30T12:05:05.299Z,3124
2018-06-30T12:06:13.952Z,3120
2018-06-30T12:07:22.608Z,3128
2018-06-30T12:08:31.255Z,3136
2018-06-30T12:09:39.913Z,3124
2018-06-30T12:10:48.567Z,3124
2018-06-30T12:11:57.481Z,3136
2018-06-30T12:13:06.127Z,3124
2018-06-30T12:14:14.784Z,3108
2018-06-30T12:15:23.434Z,3108
2018-06-30T12:16:32.088Z,3120
2018-06-30T12:17:40.736Z,3116
2018-06-30T12:18:49.392Z,3120
2018-06-30T12:19:58.048Z,3120
2018-06-30T12:21:06.972Z,3116
2018-06-30T12:22:15.625Z,3120
2018-06-30T12:23:24.554Z,3124
2018-06-30T12:24:33.217Z,3112
2018-06-30T12:25:42.131Z,3116
2018-06-30T12:26:50.790Z,3124
2018-06-30T12:27:59.444Z,3124
2018-06-30T12:29:08.100Z,3128
2018-06-30T12:30:16.781Z,3128
2018-06-30T12:31:25.707Z,3132
2018-06-30T12:32:34.359Z,3132
2018-06-30T12:33:43.009Z,3132
2018-06-30T12:34:51.660Z,3200
2018-06-30T12:36:00.320Z,3132
2018-06-30T12:37:08.970Z,3132
2018-06-30T12:38:17.623Z,3144
2018-06-30T12:39:26.278Z,3152
2018-06-30T12:40:34.927Z,3144
2018-06-30T12:41:43.583Z,3172
2018-06-30T12:42:52.235Z,3220
2018-06-30T12:44:01.155Z,3172
2018-06-30T12:45:09.814Z,3192
2018-06-30T12:46:18.462Z,3172
2018-06-30T12:47:27.115Z,3164
2018-06-30T12:48:35.766Z,3168
2018-06-30T12:49:44.425Z,3172
2018-06-30T12:50:53.075Z,3176
2018-06-30T12:52:01.997Z,3176
2018-06-30T12:53:10.909Z,3176
2018-06-30T12:54:19.674Z,3172
2018-06-30T12:55:28.221Z,3176
2018-06-30T12:56:36.879Z,3176
2018-06-30T12:57:45.529Z,3176
2018-06-30T12:58:54.181Z,3196
2018-06-30T13:00:02.839Z,3188
2018-06-30T13:01:11.497Z,3192
2018-06-30T13:02:20.414Z,3188
2018-06-30T13:03:29.064Z,3184
2018-06-30T13:04:37.720Z,3184
2018-06-30T13:05:46.374Z,3196
2018-06-30T13:06:55.029Z,3204
2018-06-30T13:08:03.679Z,3208
2018-06-30T13:09:12.792Z,3220
2018-06-30T13:10:21.383Z,3204
2018-06-30T13:11:30.251Z,3200
2018-06-30T13:12:39.166Z,3200
2018-06-30T13:13:47.822Z,3220
2018-06-30T13:14:56.739Z,3200
2018-06-30T13:16:05.664Z,3192
2018-06-30T13:17:14.322Z,3196
2018-06-30T13:18:22.971Z,3196
2018-06-30T13:19:31.626Z,3196
2018-06-30T13:20:40.279Z,3196
2018-06-30T13:21:48.937Z,3196
2018-06-30T13:22:57.589Z,3192
2018-06-30T13:24:06.244Z,3184
2018-06-30T13:25:14.900Z,3196
2018-06-30T13:26:23.557Z,3188
2018-06-30T13:27:32.479Z,3196
2018-06-30T13:28:41.141Z,3192
2018-06-30T13:29:49.785Z,3208
2018-06-30T13:30:58.447Z,3192
2018-06-30T13:32:07.375Z,3192
2018-06-30T13:33:16.021Z,3188
2018-06-30T13:34:25.009Z,3184
2018-06-30T13:35:33.601Z,3196
2018-06-30T13:36:42.529Z,3200
2018-06-30T13:37:51.184Z,3200
2018-06-30T13:38:59.838Z,3188
2018-06-30T13:40:08.490Z,3184
2018-06-30T13:41:17.411Z,3184
2018-06-30T13:42:26.062Z,3208
2018-06-30T13:43:34.759Z,3192
2018-06-30T13:44:43.458Z,3176
2018-06-30T13:45:52.874Z,3168
2018-06-30T13:47:01.530Z,3184
2018-06-30T13:48:10.452Z,3200
2018-06-30T13:49:19.103Z,3172
2018-06-30T13:50:27.753Z,3176
2018-06-30T13:51:36.413Z,3172
2018-06-30T13:52:45.469Z,3196
2018-06-30T13:53:53.996Z,3172
2018-06-30T13:55:02.642Z,3156
2018-06-30T13:56:11.298Z,3156
2018-06-30T13:57:19.954Z,3152
2018-06-30T13:58:28.611Z,3152
2018-06-30T13:59:37.517Z,3152
2018-06-30T14:00:46.235Z,3140
2018-06-30T14:01:54.831Z,3148
2018-06-30T14:03:03.496Z,3128
2018-06-30T14:04:12.141Z,3136
2018-06-30T14:05:20.798Z,3128
2018-06-30T14:06:29.450Z,3116
2018-06-30T14:07:38.125Z,3108
2018-06-30T14:08:47.043Z,3088
2018-06-30T14:09:55.955Z,3068
2018-06-30T14:11:04.609Z,3052
2018-06-30T14:12:13.256Z,3052
2018-06-30T14:13:21.919Z,3036
2018-06-30T14:14:30.570Z,3020
2018-06-30T14:15:39.230Z,2996
2018-06-30T14:16:47.874Z,2968
2018-06-30T14:17:56.802Z,2956
2018-06-30T14:19:05.451Z,2920
2018-06-30T14:20:14.110Z,2900
2018-06-30T14:21:22.752Z,2888
2018-06-30T14:22:31.415Z,2880
2018-06-30T14:23:40.069Z,2864
2018-06-30T14:24:48.721Z,2856
2018-06-30T14:25:57.630Z,2848
2018-06-30T14:27:06.285Z,2808
2018-06-30T14:28:14.943Z,2792
2018-06-30T14:29:23.597Z,2772
2018-06-30T14:30:32.253Z,2744
2018-06-30T14:31:41.422Z,2764
2018-06-30T14:32:50.612Z,2720
2018-06-30T14:33:59.262Z,2708
2018-06-30T14:35:07.929Z,2680
2018-06-30T14:36:16.576Z,2688
2018-06-30T14:37:25.496Z,2652
2018-06-30T14:38:34.404Z,2632
2018-06-30T14:39:43.064Z,2736
2018-06-30T14:40:51.716Z,2628
2018-06-30T14:42:00.370Z,2568
2018-06-30T14:43:09.019Z,2572
2018-06-30T14:44:17.679Z,2576
2018-06-30T14:45:26.595Z,2556
2018-06-30T14:46:35.243Z,2548
2018-06-30T14:47:43.895Z,2524
2018-06-30T14:48:52.545Z,2532
2018-06-30T14:50:01.203Z,2508
2018-06-30T14:51:09.859Z,2488
2018-06-30T14:52:18.775Z,2496
2018-06-30T14:53:27.422Z,2500
2018-06-30T14:54:36.082Z,2476
2018-06-30T14:55:44.994Z,2456
2018-06-30T14:56:53.908Z,2444
2018-06-30T14:58:02.570Z,2436
2018-06-30T14:59:11.489Z,2436
2018-06-30T15:00:20.140Z,2416
2018-06-30T15:01:28.797Z,2416
2018-06-30T15:02:37.705Z,2396
2018-06-30T15:03:46.362Z,2388
2018-06-30T15:04:55.010Z,2380
2018-06-30T15:06:03.935Z,2368
2018-06-30T15:07:12.590Z,2340
2018-06-30T15:08:21.239Z,2380
2018-06-30T15:09:30.154Z,2332
2018-06-30T15:10:38.805Z,2340
2018-06-30T15:11:47.465Z,2320
2018-06-30T15:12:56.116Z,2328
2018-06-30T15:14:04.768Z,2336
2018-06-30T15:15:13.689Z,2348
2018-06-30T15:16:22.341Z,2296
2018-06-30T15:17:31.261Z,2336
2018-06-30T15:18:39.917Z,2288
2018-06-30T15:19:48.569Z,2288
2018-06-30T15:20:57.229Z,2304
2018-06-30T15:22:05.880Z,2276
2018-06-30T15:23:14.534Z,2236
2018-06-30T15:24:23.451Z,2224
2018-06-30T15:25:32.102Z,2216
2018-06-30T15:26:40.762Z,2224
2018-06-30T15:27:49.414Z,2192
2018-06-30T15:28:58.073Z,2196
2018-06-30T15:30:06.726Z,2164
2018-06-30T15:31:15.381Z,2196
2018-06-30T15:32:24.040Z,2168
2018-06-30T15:33:32.694Z,2156
2018-06-30T15:34:41.349Z,2144